createdAt,value
2019-03-05T00:00:12.014Z,31.59
2019-03-05T00:01:12.024Z,31.70
2019-03-05T00:02:11.996Z,31.88
2019-03-05T00:03:11.930Z,31.79
2019-03-05T00:04:11.941Z,32.29
2019-03-05T00:05:11.904Z,31.90
2019-03-05T00:06:11.908Z,32.49
2019-03-05T00:07:11.878Z,32.39
2019-03-05T00:08:11.872Z,31.48
2019-03-05T00:09:11.871Z,31.59
2019-03-05T00:10:11.854Z,32.09
2019-03-05T00:11:11.883Z,31.99
2019-03-05T00:12:11.823Z,31.99
2019-03-05T00:13:11.861Z,32.09
2019-03-05T00:14:11.838Z,32.09
2019-03-05T00:15:11.922Z,31.99
2019-03-05T00:16:11.779Z,31.88
2019-03-05T00:17:11.782Z,32.18
2019-03-05T00:18:11.759Z,32.20
2019-03-05T00:19:11.757Z,32.10
2019-03-05T00:20:11.733Z,32.00
2019-03-05T00:21:11.739Z,32.49
2019-03-05T00:22:11.723Z,32.29
2019-03-05T00:23:11.702Z,32.59
2019-03-05T00:24:11.766Z,31.48
2019-03-05T00:25:11.709Z,31.99
2019-03-05T00:26:11.749Z,31.99
2019-03-05T00:27:11.653Z,31.48
2019-03-05T00:28:11.641Z,31.99
2019-03-05T00:29:11.660Z,31.88
2019-03-05T00:30:11.628Z,31.99
2019-03-05T00:31:11.610Z,31.79
2019-03-05T00:32:11.596Z,31.99
2019-03-05T00:33:11.585Z,31.99
2019-03-05T00:34:11.614Z,32.20
2019-03-05T00:35:11.560Z,31.90
2019-03-05T00:36:11.552Z,32.18
2019-03-05T00:37:11.570Z,31.90
2019-03-05T00:38:11.563Z,31.90
2019-03-05T00:39:11.638Z,32.30
2019-03-05T00:40:11.517Z,32.00
2019-03-05T00:41:11.514Z,31.90
2019-03-05T00:42:11.492Z,31.80
2019-03-05T00:43:11.480Z,32.30
2019-03-05T00:44:11.527Z,32.20
2019-03-05T00:45:11.462Z,32.10
2019-03-05T00:46:11.447Z,31.99
2019-03-05T00:47:11.438Z,32.30
2019-03-05T00:48:11.519Z,32.18
2019-03-05T00:49:11.408Z,32.10
2019-03-05T00:50:11.419Z,32.10
2019-03-05T00:51:11.413Z,31.90
2019-03-05T00:52:11.410Z,32.00
2019-03-05T00:53:11.382Z,31.90
2019-03-05T00:54:11.370Z,32.20
2019-03-05T00:55:11.366Z,32.00
2019-03-05T00:56:11.495Z,32.40
2019-03-05T00:57:11.328Z,32.39
2019-03-05T00:58:11.343Z,31.70
2019-03-05T00:59:11.361Z,32.00
2019-03-05T01:00:11.332Z,31.99
2019-03-05T01:01:11.284Z,31.79
2019-03-05T01:02:11.337Z,32.18
2019-03-05T01:03:11.288Z,32.49
2019-03-05T01:04:11.249Z,32.39
2019-03-05T01:05:11.296Z,32.20
2019-03-05T01:06:11.270Z,32.50
2019-03-05T01:07:11.238Z,32.30
2019-03-05T01:08:11.259Z,32.40
2019-03-05T01:09:11.217Z,32.30
2019-03-05T01:10:11.204Z,31.90
2019-03-05T01:11:11.159Z,31.90
2019-03-05T01:12:11.164Z,31.99
2019-03-05T01:13:11.144Z,32.30
2019-03-05T01:14:11.243Z,32.00
2019-03-05T01:15:11.123Z,32.10
2019-03-05T01:16:11.113Z,32.00
2019-03-05T01:17:11.093Z,32.10
2019-03-05T01:18:11.079Z,31.90
2019-03-05T01:19:11.075Z,32.00
2019-03-05T01:20:11.080Z,32.10
2019-03-05T01:21:11.074Z,31.90
2019-03-05T01:22:11.118Z,32.20
2019-03-05T01:23:11.025Z,32.10
2019-03-05T01:24:11.018Z,32.40
2019-03-05T01:25:11.041Z,32.30
2019-03-05T01:26:11.009Z,32.00
2019-03-05T01:27:10.986Z,31.60
2019-03-05T01:28:10.982Z,31.50
2019-03-05T01:29:10.972Z,31.50
2019-03-05T01:30:10.944Z,32.20
2019-03-05T01:31:10.942Z,32.00
2019-03-05T01:32:10.929Z,30.90
2019-03-05T01:33:11.006Z,31.00
2019-03-05T01:34:10.906Z,31.40
2019-03-05T01:35:10.920Z,31.10
2019-03-05T01:36:11.011Z,31.00
2019-03-05T01:37:10.908Z,31.60
2019-03-05T01:38:10.886Z,32.50
2019-03-05T01:39:10.848Z,31.60
2019-03-05T01:40:10.901Z,32.60
2019-03-05T01:41:10.871Z,32.50
2019-03-05T01:42:10.838Z,32.10
2019-03-05T01:43:10.869Z,32.50
2019-03-05T01:44:10.802Z,31.60
2019-03-05T01:45:10.800Z,32.30
2019-03-05T01:46:10.974Z,30.80
2019-03-05T01:47:10.774Z,31.00
2019-03-05T01:48:10.781Z,31.40
2019-03-05T01:49:10.777Z,30.90
2019-03-05T01:50:10.734Z,31.40
2019-03-05T01:51:10.815Z,31.40
2019-03-05T01:52:10.700Z,31.40
2019-03-05T01:53:10.789Z,31.30
2019-03-05T01:54:10.679Z,30.80
2019-03-05T01:55:10.672Z,31.60
2019-03-05T01:56:10.759Z,32.00
2019-03-05T01:57:10.654Z,32.00
2019-03-05T01:58:10.634Z,31.70
2019-03-05T01:59:10.648Z,31.50
2019-03-05T02:00:11.803Z,31.60
2019-03-05T02:01:10.605Z,30.80
2019-03-05T02:02:10.587Z,31.62
2019-03-05T02:03:10.573Z,31.00
2019-03-05T02:04:10.623Z,31.20
2019-03-05T02:05:10.566Z,31.10
2019-03-05T02:06:10.579Z,31.20
2019-03-05T02:07:10.532Z,31.40
2019-03-05T02:08:10.525Z,31.50
2019-03-05T02:09:10.523Z,31.00
2019-03-05T02:10:10.503Z,30.90
2019-03-05T02:11:10.549Z,31.30
2019-03-05T02:12:10.489Z,31.00
2019-03-05T02:13:10.459Z,31.01
2019-03-05T02:14:10.461Z,32.00
2019-03-05T02:15:10.445Z,32.20
2019-03-05T02:16:10.448Z,31.41
2019-03-05T02:17:10.430Z,31.51
2019-03-05T02:18:10.420Z,32.42
2019-03-05T02:19:10.420Z,31.50
2019-03-05T02:20:10.393Z,32.21
2019-03-05T02:21:10.396Z,31.12
2019-03-05T02:22:10.376Z,31.41
2019-03-05T02:23:10.360Z,31.12
2019-03-05T02:24:10.357Z,30.90
2019-03-05T02:25:10.363Z,30.91
2019-03-05T02:26:10.439Z,31.12
2019-03-05T02:27:10.316Z,31.01
2019-03-05T02:28:10.354Z,30.81
2019-03-05T02:29:10.288Z,32.21
2019-03-05T02:30:10.403Z,32.21
2019-03-05T02:31:10.274Z,32.02
2019-03-05T02:32:10.271Z,31.60
2019-03-05T02:33:10.263Z,31.51
2019-03-05T02:34:10.312Z,32.42
2019-03-05T02:35:10.226Z,32.50
2019-03-05T02:36:10.209Z,31.31
2019-03-05T02:37:10.207Z,31.00
2019-03-05T02:38:10.198Z,31.21
2019-03-05T02:39:10.175Z,30.91
2019-03-05T02:40:10.168Z,31.40
2019-03-05T02:41:10.158Z,31.41
2019-03-05T02:42:10.154Z,31.41
2019-03-05T02:43:10.189Z,31.10
2019-03-05T02:44:10.149Z,31.20
2019-03-05T02:45:10.178Z,31.20
2019-03-05T02:46:10.128Z,31.00
2019-03-05T02:47:10.174Z,31.10
2019-03-05T02:48:10.133Z,31.00
2019-03-05T02:49:10.147Z,31.31
2019-03-05T02:50:10.052Z,31.00
2019-03-05T02:51:10.083Z,31.82
2019-03-05T02:52:10.073Z,32.12
2019-03-05T02:53:10.103Z,31.82
2019-03-05T02:54:10.016Z,31.21
2019-03-05T02:55:10.042Z,31.01
2019-03-05T02:56:10.032Z,30.91
2019-03-05T02:57:09.981Z,30.91
2019-03-05T02:58:09.961Z,30.91
2019-03-05T02:59:09.998Z,31.12
2019-03-05T03:00:09.999Z,31.01
2019-03-05T03:01:09.940Z,31.01
2019-03-05T03:02:09.966Z,31.31
2019-03-05T03:03:09.920Z,31.62
2019-03-05T03:04:09.993Z,30.90
2019-03-05T03:05:09.917Z,32.02
2019-03-05T03:06:09.894Z,32.02
2019-03-05T03:07:09.895Z,32.02
2019-03-05T03:08:09.921Z,31.41
2019-03-05T03:09:09.844Z,32.12
2019-03-05T03:10:09.876Z,32.02
2019-03-05T03:11:09.863Z,31.71
2019-03-05T03:12:09.810Z,32.21
2019-03-05T03:13:09.816Z,32.02
2019-03-05T03:14:09.784Z,32.62
2019-03-05T03:15:09.806Z,32.32
2019-03-05T03:16:09.762Z,32.42
2019-03-05T03:17:09.758Z,32.32
2019-03-05T03:18:09.757Z,32.32
2019-03-05T03:19:09.738Z,32.32
2019-03-05T03:20:09.738Z,32.12
2019-03-05T03:21:09.733Z,32.21
2019-03-05T03:22:09.699Z,32.52
2019-03-05T03:23:09.788Z,32.52
2019-03-05T03:24:09.700Z,31.71
2019-03-05T03:25:09.699Z,30.81
2019-03-05T03:26:14.510Z,31.31
2019-03-05T03:27:09.690Z,31.01
2019-03-05T03:28:09.650Z,31.12
2019-03-05T03:29:09.625Z,30.91
2019-03-05T03:30:09.645Z,31.31
2019-03-05T03:31:09.668Z,31.31
2019-03-05T03:32:09.629Z,31.50
2019-03-05T03:33:09.594Z,31.41
2019-03-05T03:34:09.610Z,31.10
2019-03-05T03:35:09.554Z,31.51
2019-03-05T03:36:09.560Z,31.01
2019-03-05T03:37:09.530Z,31.30
2019-03-05T03:38:09.552Z,30.91
2019-03-05T03:39:09.514Z,31.30
2019-03-05T03:40:09.569Z,31.90
2019-03-05T03:41:09.518Z,31.12
2019-03-05T03:42:09.531Z,30.81
2019-03-05T03:43:09.541Z,31.12
2019-03-05T03:44:09.466Z,31.01
2019-03-05T03:45:09.444Z,31.01
2019-03-05T03:46:09.477Z,31.12
2019-03-05T03:47:09.469Z,31.31
2019-03-05T03:48:09.422Z,31.41
2019-03-05T03:49:09.395Z,31.41
2019-03-05T03:50:09.430Z,31.41
2019-03-05T03:51:09.383Z,31.21
2019-03-05T03:52:09.363Z,31.41
2019-03-05T03:53:09.374Z,30.91
2019-03-05T03:54:09.334Z,30.91
2019-03-05T03:55:09.337Z,31.01
2019-03-05T03:56:09.447Z,31.01
2019-03-05T03:57:09.304Z,31.10
2019-03-05T03:58:09.311Z,31.01
2019-03-05T03:59:09.279Z,31.01
2019-03-05T04:00:09.415Z,32.02
2019-03-05T04:01:09.269Z,31.10
2019-03-05T04:02:09.265Z,31.20
2019-03-05T04:03:09.305Z,31.62
2019-03-05T04:04:09.267Z,31.50
2019-03-05T04:05:09.257Z,31.21
2019-03-05T04:06:09.339Z,31.20
2019-03-05T04:07:09.197Z,31.10
2019-03-05T04:08:10.474Z,31.20
2019-03-05T04:09:09.198Z,31.50
2019-03-05T04:10:09.198Z,30.80
2019-03-05T04:11:09.201Z,30.91
2019-03-05T04:12:09.154Z,31.20
2019-03-05T04:13:09.190Z,31.10
2019-03-05T04:14:09.144Z,31.01
2019-03-05T04:15:09.137Z,31.30
2019-03-05T04:16:09.127Z,31.12
2019-03-05T04:17:09.081Z,30.81
2019-03-05T04:18:09.122Z,31.01
2019-03-05T04:19:09.082Z,31.01
2019-03-05T04:20:09.104Z,31.01
2019-03-05T04:21:09.083Z,31.41
2019-03-05T04:22:09.072Z,31.41
2019-03-05T04:23:09.021Z,31.31
2019-03-05T04:24:09.017Z,31.62
2019-03-05T04:25:09.034Z,31.50
2019-03-05T04:26:09.003Z,31.31
2019-03-05T04:27:08.980Z,31.01
2019-03-05T04:28:09.002Z,31.31
2019-03-05T04:29:08.953Z,31.82
2019-03-05T04:30:08.950Z,31.31
2019-03-05T04:31:08.932Z,31.31
2019-03-05T04:32:08.978Z,30.81
2019-03-05T04:33:08.956Z,32.02
2019-03-05T04:34:08.913Z,32.21
2019-03-05T04:35:08.887Z,31.71
2019-03-05T04:36:08.867Z,31.51
2019-03-05T04:37:08.878Z,30.91
2019-03-05T04:38:08.900Z,31.31
2019-03-05T04:39:08.864Z,31.01
2019-03-05T04:40:08.841Z,31.21
2019-03-05T04:41:08.875Z,31.12
2019-03-05T04:42:08.805Z,31.41
2019-03-05T04:43:08.787Z,30.91
2019-03-05T04:44:08.827Z,30.90
2019-03-05T04:45:08.767Z,31.00
2019-03-05T04:46:08.765Z,31.92
2019-03-05T04:47:08.751Z,32.00
2019-03-05T04:48:08.802Z,32.21
2019-03-05T04:49:08.747Z,32.21
2019-03-05T04:50:08.719Z,31.51
2019-03-05T04:51:08.702Z,32.52
2019-03-05T04:52:08.697Z,31.82
2019-03-05T04:53:08.683Z,32.02
2019-03-05T04:54:08.690Z,31.21
2019-03-05T04:55:08.671Z,31.31
2019-03-05T04:56:08.734Z,31.10
2019-03-05T04:57:08.680Z,30.91
2019-03-05T04:58:08.638Z,31.21
2019-03-05T04:59:08.622Z,31.41
2019-03-05T05:00:08.672Z,31.51
2019-03-05T05:01:08.630Z,31.20
2019-03-05T05:02:08.580Z,31.90
2019-03-05T05:03:08.697Z,31.20
2019-03-05T05:04:08.569Z,32.02
2019-03-05T05:05:08.550Z,32.02
2019-03-05T05:06:08.577Z,31.41
2019-03-05T05:07:08.553Z,31.51
2019-03-05T05:08:08.597Z,32.02
2019-03-05T05:09:08.574Z,31.71
2019-03-05T05:10:08.507Z,32.12
2019-03-05T05:11:08.512Z,31.92
2019-03-05T05:12:08.513Z,32.02
2019-03-05T05:13:08.452Z,32.32
2019-03-05T05:14:08.485Z,32.32
2019-03-05T05:15:08.468Z,31.62
2019-03-05T05:16:08.456Z,32.42
2019-03-05T05:17:08.411Z,32.42
2019-03-05T05:18:08.404Z,32.42
2019-03-05T05:19:08.451Z,32.42
2019-03-05T05:20:08.456Z,32.42
2019-03-05T05:21:08.371Z,32.42
2019-03-05T05:22:08.356Z,32.52
2019-03-05T05:23:08.349Z,32.32
2019-03-05T05:24:08.363Z,31.92
2019-03-05T05:25:08.323Z,32.52
2019-03-05T05:26:08.346Z,31.62
2019-03-05T05:27:08.343Z,32.32
2019-03-05T05:28:08.308Z,31.71
2019-03-05T05:29:08.294Z,31.31
2019-03-05T05:30:08.311Z,31.12
2019-03-05T05:31:08.279Z,31.01
2019-03-05T05:32:08.248Z,31.41
2019-03-05T05:33:08.237Z,31.41
2019-03-05T05:34:08.243Z,31.51
2019-03-05T05:35:08.207Z,31.01
2019-03-05T05:36:08.235Z,31.92
2019-03-05T05:37:08.192Z,32.02
2019-03-05T05:38:08.191Z,31.41
2019-03-05T05:39:08.179Z,31.71
2019-03-05T05:40:08.223Z,31.62
2019-03-05T05:41:08.176Z,32.62
2019-03-05T05:42:08.162Z,32.12
2019-03-05T05:43:08.116Z,31.41
2019-03-05T05:44:08.121Z,31.51
2019-03-05T05:45:08.095Z,32.32
2019-03-05T05:46:08.095Z,31.41
2019-03-05T05:47:08.090Z,31.01
2019-03-05T05:48:08.123Z,31.01
2019-03-05T05:49:08.087Z,31.01
2019-03-05T05:50:08.043Z,30.91
2019-03-05T05:51:08.093Z,31.12
2019-03-05T05:52:08.020Z,31.21
2019-03-05T05:53:08.009Z,32.02
2019-03-05T05:54:08.039Z,32.12
2019-03-05T05:55:07.980Z,32.02
2019-03-05T05:56:13.000Z,32.02
2019-03-05T05:57:07.982Z,32.30
2019-03-05T05:58:07.961Z,31.51
2019-03-05T05:59:07.960Z,31.51
2019-03-05T06:00:07.980Z,31.50
2019-03-05T06:01:07.921Z,31.51
2019-03-05T06:02:07.914Z,31.62
2019-03-05T06:03:07.897Z,32.02
2019-03-05T06:04:07.885Z,31.71
2019-03-05T06:05:07.886Z,31.82
2019-03-05T06:06:07.904Z,32.21
2019-03-05T06:07:07.868Z,32.42
2019-03-05T06:08:07.841Z,32.12
2019-03-05T06:09:07.830Z,31.92
2019-03-05T06:10:07.827Z,32.21
2019-03-05T06:11:07.807Z,31.92
2019-03-05T06:12:07.811Z,32.52
2019-03-05T06:13:07.787Z,31.92
2019-03-05T06:14:07.793Z,31.92
2019-03-05T06:15:07.775Z,32.32
2019-03-05T06:16:08.088Z,31.92
2019-03-05T06:17:07.743Z,32.21
2019-03-05T06:18:07.727Z,31.92
2019-03-05T06:19:07.718Z,32.12
2019-03-05T06:20:07.716Z,32.02
2019-03-05T06:21:07.691Z,31.92
2019-03-05T06:22:07.686Z,32.52
2019-03-05T06:23:07.675Z,32.32
2019-03-05T06:24:07.658Z,31.71
2019-03-05T06:25:07.683Z,32.21
2019-03-05T06:26:08.798Z,31.51
2019-03-05T06:27:07.641Z,32.12
2019-03-05T06:28:07.652Z,32.12
2019-03-05T06:29:07.604Z,32.02
2019-03-05T06:30:07.604Z,31.82
2019-03-05T06:31:07.605Z,32.21
2019-03-05T06:32:07.625Z,32.32
2019-03-05T06:33:07.693Z,32.12
2019-03-05T06:34:07.659Z,32.12
2019-03-05T06:35:07.546Z,32.02
2019-03-05T06:36:07.530Z,32.52
2019-03-05T06:37:07.537Z,31.71
2019-03-05T06:38:07.519Z,32.32
2019-03-05T06:39:07.509Z,31.92
2019-03-05T06:40:07.490Z,32.12
2019-03-05T06:41:07.486Z,32.12
2019-03-05T06:42:07.455Z,32.21
2019-03-05T06:43:07.506Z,32.00
2019-03-05T06:44:09.388Z,32.20
2019-03-05T06:45:07.494Z,32.02
2019-03-05T06:46:07.416Z,32.21
2019-03-05T06:47:07.543Z,32.21
2019-03-05T06:48:07.420Z,31.41
2019-03-05T06:49:07.402Z,32.42
2019-03-05T06:50:07.403Z,32.21
2019-03-05T06:51:07.371Z,32.70
2019-03-05T06:52:07.395Z,32.81
2019-03-05T06:53:07.436Z,31.62
2019-03-05T06:54:07.363Z,31.90
2019-03-05T06:55:07.331Z,32.21
2019-03-05T06:56:07.364Z,31.82
2019-03-05T06:57:07.352Z,31.80
2019-03-05T06:58:07.305Z,31.90
2019-03-05T06:59:07.267Z,31.71
2019-03-05T07:00:07.394Z,31.71
2019-03-05T07:01:07.319Z,31.82
2019-03-05T07:02:07.243Z,31.80
2019-03-05T07:03:07.288Z,32.10
2019-03-05T07:04:07.242Z,31.80
2019-03-05T07:05:07.230Z,32.62
2019-03-05T07:06:07.223Z,32.42
2019-03-05T07:07:07.183Z,32.62
2019-03-05T07:08:07.184Z,32.21
2019-03-05T07:09:07.166Z,32.42
2019-03-05T07:10:07.188Z,32.52
2019-03-05T07:11:07.132Z,32.62
2019-03-05T07:12:07.141Z,33.02
2019-03-05T07:13:07.123Z,33.02
2019-03-05T07:14:07.131Z,32.72
2019-03-05T07:15:07.093Z,32.92
2019-03-05T07:16:07.102Z,32.82
2019-03-05T07:17:07.084Z,33.22
2019-03-05T07:18:07.082Z,33.22
2019-03-05T07:19:07.054Z,33.14
2019-03-05T07:20:07.073Z,33.14
2019-03-05T07:21:07.050Z,33.23
2019-03-05T07:22:07.020Z,33.04
2019-03-05T07:23:07.065Z,33.04
2019-03-05T07:24:06.996Z,33.14
2019-03-05T07:25:06.976Z,33.34
2019-03-05T07:26:07.019Z,33.34
2019-03-05T07:27:06.959Z,33.44
2019-03-05T07:28:06.953Z,33.34
2019-03-05T07:29:06.932Z,33.23
2019-03-05T07:30:06.933Z,33.14
2019-03-05T07:31:06.923Z,33.42
2019-03-05T07:32:06.899Z,33.04
2019-03-05T07:33:06.894Z,32.92
2019-03-05T07:34:06.886Z,32.92
2019-03-05T07:35:06.865Z,33.02
2019-03-05T07:36:06.853Z,33.12
2019-03-05T07:37:06.847Z,33.32
2019-03-05T07:38:06.843Z,33.32
2019-03-05T07:39:06.833Z,33.32
2019-03-05T07:40:06.854Z,33.32
2019-03-05T07:41:06.838Z,33.42
2019-03-05T07:42:06.805Z,33.32
2019-03-05T07:43:06.783Z,33.62
2019-03-05T07:44:06.784Z,33.32
2019-03-05T07:45:06.837Z,33.02
2019-03-05T07:46:06.752Z,33.12
2019-03-05T07:47:06.742Z,33.12
2019-03-05T07:48:06.728Z,33.22
2019-03-05T07:49:06.775Z,33.22
2019-03-05T07:50:06.734Z,33.22
2019-03-05T07:51:06.692Z,33.12
2019-03-05T07:52:06.706Z,33.22
2019-03-05T07:53:06.665Z,33.12
2019-03-05T07:54:06.681Z,33.32
2019-03-05T07:55:13.574Z,33.81
2019-03-05T07:56:12.480Z,33.92
2019-03-05T07:57:06.620Z,33.22
2019-03-05T07:58:06.609Z,33.22
2019-03-05T07:59:06.658Z,33.20
2019-03-05T08:00:06.700Z,34.01
2019-03-05T08:01:06.576Z,33.20
2019-03-05T08:02:06.565Z,33.52
2019-03-05T08:03:06.597Z,33.12
2019-03-05T08:04:06.715Z,33.71
2019-03-05T08:05:06.565Z,33.71
2019-03-05T08:06:06.605Z,33.40
2019-03-05T08:07:06.504Z,33.81
2019-03-05T08:08:06.502Z,33.71
2019-03-05T08:09:06.502Z,33.71
2019-03-05T08:10:06.519Z,33.31
2019-03-05T08:11:06.499Z,33.61
2019-03-05T08:12:06.457Z,33.31
2019-03-05T08:13:06.452Z,33.51
2019-03-05T08:14:06.449Z,33.51
2019-03-05T08:15:06.459Z,33.71
2019-03-05T08:16:06.467Z,33.61
2019-03-05T08:17:06.400Z,33.20
2019-03-05T08:18:06.384Z,32.99
2019-03-05T08:19:06.375Z,32.99
2019-03-05T08:20:06.397Z,33.69
2019-03-05T08:21:06.588Z,33.19
2019-03-05T08:22:08.717Z,33.49
2019-03-05T08:23:06.337Z,33.49
2019-03-05T08:24:06.472Z,33.79
2019-03-05T08:25:06.392Z,33.79
2019-03-05T08:26:06.405Z,33.69
2019-03-05T08:27:06.284Z,33.69
2019-03-05T08:28:06.299Z,33.79
2019-03-05T08:29:06.263Z,33.71
2019-03-05T08:30:14.287Z,33.69
2019-03-05T08:31:07.242Z,33.49
2019-03-05T08:32:06.234Z,33.20
2019-03-05T08:33:06.233Z,33.11
2019-03-05T08:34:06.217Z,33.20
2019-03-05T08:35:06.214Z,34.51
2019-03-05T08:36:06.189Z,34.41
2019-03-05T08:37:06.175Z,34.21
2019-03-05T08:38:06.174Z,33.81
2019-03-05T08:39:06.183Z,34.31
2019-03-05T08:40:06.143Z,34.61
2019-03-05T08:41:06.159Z,33.79
2019-03-05T08:42:06.130Z,33.20
2019-03-05T08:43:06.145Z,33.19
2019-03-05T08:44:06.115Z,33.19
2019-03-05T08:45:06.088Z,33.29
2019-03-05T08:46:06.084Z,33.19
2019-03-05T08:47:06.068Z,33.29
2019-03-05T08:48:06.065Z,33.79
2019-03-05T08:49:06.036Z,33.49
2019-03-05T08:50:06.054Z,33.39
2019-03-05T08:51:06.021Z,33.89
2019-03-05T08:52:06.011Z,33.99
2019-03-05T08:53:05.999Z,33.59
2019-03-05T08:54:07.815Z,34.69
2019-03-05T08:55:06.019Z,34.19
2019-03-05T08:56:06.025Z,33.99
2019-03-05T08:57:05.948Z,34.19
2019-03-05T08:58:05.937Z,34.19
2019-03-05T08:59:05.934Z,33.99
2019-03-05T09:00:05.944Z,33.17
2019-03-05T09:01:05.916Z,33.47
2019-03-05T09:02:05.891Z,33.28
2019-03-05T09:03:05.880Z,32.97
2019-03-05T09:04:05.867Z,32.87
2019-03-05T09:05:05.895Z,33.47
2019-03-05T09:06:05.857Z,32.97
2019-03-05T09:07:05.852Z,33.17
2019-03-05T09:08:05.834Z,33.78
2019-03-05T09:09:05.812Z,33.47
2019-03-05T09:10:05.802Z,33.98
2019-03-05T09:11:05.797Z,33.99
2019-03-05T09:12:05.776Z,33.99
2019-03-05T09:13:05.783Z,34.89
2019-03-05T09:14:05.774Z,34.09
2019-03-05T09:15:05.770Z,34.29
2019-03-05T09:16:05.752Z,33.79
2019-03-05T09:17:05.746Z,34.49
2019-03-05T09:18:05.718Z,34.80
2019-03-05T09:19:05.775Z,34.49
2019-03-05T09:20:05.689Z,33.52
2019-03-05T09:21:05.688Z,35.61
2019-03-05T09:22:05.677Z,37.92
2019-03-05T09:23:05.679Z,39.48
2019-03-05T09:24:05.663Z,41.49
2019-03-05T09:25:05.670Z,43.75
2019-03-05T09:26:05.698Z,43.77
2019-03-05T09:27:05.655Z,44.60
2019-03-05T09:28:07.331Z,44.62
2019-03-05T09:29:05.601Z,45.36
2019-03-05T09:30:05.594Z,45.25
2019-03-05T09:31:05.601Z,45.78
2019-03-05T09:32:05.555Z,45.89
2019-03-05T09:33:05.568Z,46.41
2019-03-05T09:34:05.554Z,46.51
2019-03-05T09:35:05.559Z,46.70
2019-03-05T09:36:05.532Z,46.39
2019-03-05T09:37:05.533Z,46.70
2019-03-05T09:38:05.501Z,46.29
2019-03-05T09:39:05.525Z,46.72
2019-03-05T09:40:05.544Z,46.62
2019-03-05T09:41:05.462Z,46.92
2019-03-05T09:42:05.457Z,47.53
2019-03-05T09:43:05.539Z,46.92
2019-03-05T09:44:05.433Z,47.13
2019-03-05T09:45:05.408Z,46.39
2019-03-05T09:46:05.414Z,46.49
2019-03-05T09:47:05.407Z,46.59
2019-03-05T09:48:05.406Z,46.49
2019-03-05T09:49:05.390Z,46.72
2019-03-05T09:50:05.381Z,46.41
2019-03-05T09:51:05.341Z,46.39
2019-03-05T09:52:05.349Z,46.53
2019-03-05T09:53:05.453Z,47.05
2019-03-05T09:54:05.317Z,46.94
2019-03-05T09:55:05.318Z,46.94
2019-03-05T09:56:05.314Z,48.27
2019-03-05T09:57:05.312Z,46.92
2019-03-05T09:58:08.442Z,46.92
2019-03-05T09:59:05.253Z,48.04
2019-03-05T10:00:05.253Z,46.94
2019-03-05T10:01:05.314Z,47.14
2019-03-05T10:02:05.277Z,47.25
2019-03-05T10:03:05.212Z,46.94
2019-03-05T10:04:05.457Z,47.96
2019-03-05T10:05:05.187Z,46.84
2019-03-05T10:06:05.202Z,48.27
2019-03-05T10:07:05.527Z,47.14
2019-03-05T10:08:05.173Z,48.06
2019-03-05T10:09:05.215Z,47.13
2019-03-05T10:10:05.168Z,46.51
2019-03-05T10:11:05.134Z,47.02
2019-03-05T10:12:05.133Z,48.14
2019-03-05T10:13:05.096Z,47.75
2019-03-05T10:14:05.094Z,47.86
2019-03-05T10:15:05.081Z,47.75
2019-03-05T10:16:05.068Z,47.14
2019-03-05T10:17:05.092Z,47.86
2019-03-05T10:18:12.727Z,47.66
2019-03-05T10:19:06.049Z,46.64
2019-03-05T10:20:05.053Z,47.45
2019-03-05T10:21:05.973Z,46.97
2019-03-05T10:22:05.015Z,47.78
2019-03-05T10:23:04.988Z,48.08
2019-03-05T10:24:10.597Z,48.28
2019-03-05T10:25:06.552Z,47.98
2019-03-05T10:26:05.067Z,48.69
2019-03-05T10:27:04.957Z,48.19
2019-03-05T10:28:04.939Z,47.94
2019-03-05T10:29:04.931Z,46.62
2019-03-05T10:30:04.986Z,47.33
2019-03-05T10:31:04.952Z,46.51
2019-03-05T10:32:04.948Z,46.41
2019-03-05T10:33:04.942Z,47.51
2019-03-05T10:34:04.881Z,46.59
2019-03-05T10:35:04.872Z,46.80
2019-03-05T10:36:04.936Z,46.70
2019-03-05T10:37:12.380Z,46.49
2019-03-05T10:38:05.849Z,46.39
2019-03-05T10:39:04.825Z,47.02
2019-03-05T10:40:04.820Z,46.82
2019-03-05T10:41:04.813Z,48.36
2019-03-05T10:42:04.854Z,47.22
2019-03-05T10:43:08.348Z,46.70
2019-03-05T10:44:04.752Z,46.78
2019-03-05T10:45:04.824Z,44.73
2019-03-05T10:46:04.734Z,43.99
2019-03-05T10:47:04.739Z,44.30
2019-03-05T10:48:04.711Z,44.48
2019-03-05T10:49:04.712Z,44.90
2019-03-05T10:50:15.044Z,44.38
2019-03-05T10:51:05.674Z,44.48
2019-03-05T10:52:04.719Z,44.18
2019-03-05T10:53:04.769Z,43.47
2019-03-05T10:54:04.703Z,44.15
2019-03-05T10:55:04.650Z,44.06
2019-03-05T10:56:04.834Z,43.44
2019-03-05T10:57:04.607Z,44.15
2019-03-05T10:58:04.615Z,43.83
2019-03-05T10:59:05.529Z,43.41
2019-03-05T11:00:04.614Z,42.69
2019-03-05T11:01:04.595Z,42.60
2019-03-05T11:02:04.659Z,42.90
2019-03-05T11:03:04.626Z,42.90
2019-03-05T11:04:04.540Z,43.08
2019-03-05T11:05:04.554Z,41.77
2019-03-05T11:06:04.540Z,42.27
2019-03-05T11:07:04.500Z,42.69
2019-03-05T11:08:04.605Z,42.40
2019-03-05T11:09:04.480Z,42.09
2019-03-05T11:10:04.465Z,42.49
2019-03-05T11:11:12.978Z,42.69
2019-03-05T11:12:05.432Z,43.10
2019-03-05T11:13:04.439Z,42.11
2019-03-05T11:14:04.413Z,42.92
2019-03-05T11:15:04.417Z,42.09
2019-03-05T11:16:04.403Z,42.69
2019-03-05T11:17:04.407Z,42.69
2019-03-05T11:18:04.411Z,43.51
2019-03-05T11:19:04.386Z,42.80
2019-03-05T11:20:04.370Z,42.40
2019-03-05T11:21:04.383Z,42.60
2019-03-05T11:22:04.413Z,42.49
2019-03-05T11:23:04.358Z,42.19
2019-03-05T11:24:04.325Z,41.97
2019-03-05T11:25:04.369Z,42.80
2019-03-05T11:26:04.401Z,42.37
2019-03-05T11:27:04.580Z,42.07
2019-03-05T11:28:04.264Z,41.66
2019-03-05T11:29:04.266Z,41.36
2019-03-05T11:30:04.248Z,42.49
2019-03-05T11:31:04.228Z,42.78
2019-03-05T11:32:04.211Z,42.15
2019-03-05T11:33:04.230Z,40.84
2019-03-05T11:34:04.192Z,41.44
2019-03-05T11:35:04.189Z,41.77
2019-03-05T11:36:04.183Z,42.37
2019-03-05T11:37:04.175Z,42.46
2019-03-05T11:38:04.184Z,41.46
2019-03-05T11:39:04.138Z,42.07
2019-03-05T11:40:04.139Z,42.46
2019-03-05T11:41:04.394Z,40.23
2019-03-05T11:42:04.105Z,39.81
2019-03-05T11:43:04.102Z,41.04
2019-03-05T11:44:04.182Z,41.02
2019-03-05T11:45:07.435Z,40.01
2019-03-05T11:46:04.059Z,40.11
2019-03-05T11:47:04.048Z,41.30
2019-03-05T11:48:04.043Z,39.79
2019-03-05T11:49:04.024Z,39.59
2019-03-05T11:50:04.031Z,39.28
2019-03-05T11:51:04.022Z,41.28
2019-03-05T11:52:04.003Z,39.35
2019-03-05T11:53:03.994Z,39.04
2019-03-05T11:54:03.978Z,39.75
2019-03-05T11:55:03.968Z,38.95
2019-03-05T11:56:03.988Z,38.34
2019-03-05T11:57:03.953Z,39.77
2019-03-05T11:58:03.932Z,39.79
2019-03-05T11:59:03.931Z,40.72
2019-03-05T12:00:03.899Z,40.82
2019-03-05T12:01:03.903Z,40.75
2019-03-05T12:02:03.894Z,41.77
2019-03-05T12:03:03.950Z,41.97
2019-03-05T12:04:03.859Z,41.28
2019-03-05T12:05:03.845Z,40.88
2019-03-05T12:06:03.868Z,40.67
2019-03-05T12:07:03.821Z,41.50
2019-03-05T12:08:03.826Z,42.41
2019-03-05T12:09:03.807Z,41.40
2019-03-05T12:10:03.907Z,41.08
2019-03-05T12:11:03.788Z,41.38
2019-03-05T12:12:03.764Z,41.08
2019-03-05T12:13:03.754Z,41.71
2019-03-05T12:14:03.749Z,41.83
2019-03-05T12:15:03.732Z,42.33
2019-03-05T12:16:03.775Z,42.61
2019-03-05T12:17:03.719Z,42.52
2019-03-05T12:18:03.697Z,41.30
2019-03-05T12:19:03.720Z,41.00
2019-03-05T12:20:03.676Z,41.30
2019-03-05T12:21:03.665Z,41.72
2019-03-05T12:22:03.654Z,42.03
2019-03-05T12:23:06.655Z,42.03
2019-03-05T12:24:04.643Z,42.54
2019-03-05T12:25:03.730Z,41.22
2019-03-05T12:26:03.723Z,42.72
2019-03-05T12:27:03.601Z,42.49
2019-03-05T12:28:10.310Z,42.27
2019-03-05T12:29:04.621Z,42.05
2019-03-05T12:30:03.645Z,42.13
2019-03-05T12:31:03.559Z,41.20
2019-03-05T12:32:03.539Z,41.08
2019-03-05T12:33:03.543Z,40.36
2019-03-05T12:34:03.540Z,40.03
2019-03-05T12:35:03.514Z,39.51
2019-03-05T12:36:03.526Z,39.41
2019-03-05T12:37:03.538Z,38.48
2019-03-05T12:38:03.501Z,38.48
2019-03-05T12:39:03.489Z,37.56
2019-03-05T12:40:03.457Z,38.05
2019-03-05T12:41:03.444Z,37.54
2019-03-05T12:42:03.820Z,36.82
2019-03-05T12:43:03.542Z,37.63
2019-03-05T12:44:05.319Z,36.60
2019-03-05T12:45:03.446Z,36.70
2019-03-05T12:46:03.390Z,36.20
2019-03-05T12:47:03.418Z,35.78
2019-03-05T12:48:03.436Z,35.98
2019-03-05T12:49:03.432Z,36.29
2019-03-05T12:50:03.427Z,35.86
2019-03-05T12:51:03.330Z,35.86
2019-03-05T12:52:03.332Z,35.85